sensor_id;sensor_type;location;lat;lon;timestamp;P1;durP1;ratioP1;P2;durP2;ratioP2
1204;SDS011;592;48.764;9.174;2022-09-12T00:01:36;9.70;;;7.20;;
1204;SDS011;592;48.764;9.174;2022-09-12T00:04:02;9.33;;;7.53;;
1204;SDS011;592;48.764;9.174;2022-09-12T00:06:30;9.20;;;7.33;;
1204;SDS011;592;48.764;9.174;2022-09-12T00:09:00;10.33;;;7.40;;
1204;SDS011;592;48.764;9.174;2022-09-12T00:11:29;11.87;;;7.60;;
1204;SDS011;592;48.764;9.174;2022-09-12T00:13:56;10.00;;;7.60;;
1204;SDS011;592;48.764;9.174;2022-09-12T00:16:24;11.87;;;8.27;;
1204;SDS011;592;48.764;9.174;2022-09-12T00:18:52;11.40;;;8.43;;
1204;SDS011;592;48.764;9.174;2022-09-12T00:21:19;9.67;;;8.07;;
1204;SDS011;592;48.764;9.174;2022-09-12T00:23:46;10.03;;;7.40;;
1204;SDS011;592;48.764;9.174;2022-09-12T00:26:15;10.50;;;8.80;;
1204;SDS011;592;48.764;9.174;2022-09-12T00:28:42;13.30;;;8.83;;
1204;SDS011;592;48.764;9.174;2022-09-12T00:31:10;10.57;;;8.60;;
1204;SDS011;592;48.764;9.174;2022-09-12T00:33:38;12.47;;;8.83;;
1204;SDS011;592;48.764;9.174;2022-09-12T00:36:07;13.13;;;8.17;;
1204;SDS011;592;48.764;9.174;2022-09-12T00:38:35;11.90;;;8.40;;
1204;SDS011;592;48.764;9.174;2022-09-12T00:41:06;10.90;;;8.70;;
1204;SDS011;592;48.764;9.174;2022-09-12T00:43:38;13.43;;;8.77;;
1204;SDS011;592;48.764;9.174;2022-09-12T00:46:09;12.30;;;8.83;;
1204;SDS011;592;48.764;9.174;2022-09-12T00:48:41;10.97;;;8.60;;
1204;SDS011;592;48.764;9.174;2022-09-12T00:51:12;10.97;;;8.40;;
1204;SDS011;592;48.764;9.174;2022-09-12T00:53:40;11.20;;;8.50;;
1204;SDS011;592;48.764;9.174;2022-09-12T00:56:09;10.53;;;8.37;;
1204;SDS011;592;48.764;9.174;2022-09-12T00:58:40;16.37;;;9.90;;
1204;SDS011;592;48.764;9.174;2022-09-12T01:01:10;15.17;;;9.37;;
1204;SDS011;592;48.764;9.174;2022-09-12T01:03:37;15.10;;;10.87;;
1204;SDS011;592;48.764;9.174;2022-09-12T01:06:04;16.30;;;9.50;;
1204;SDS011;592;48.764;9.174;2022-09-12T01:08:35;14.53;;;9.50;;
1204;SDS011;592;48.764;9.174;2022-09-12T01:11:05;12.80;;;8.67;;
1204;SDS011;592;48.764;9.174;2022-09-12T01:13:33;13.57;;;8.40;;
1204;SDS011;592;48.764;9.174;2022-09-12T01:16:03;13.53;;;8.63;;
1204;SDS011;592;48.764;9.174;2022-09-12T01:18:31;10.77;;;8.07;;
1204;SDS011;592;48.764;9.174;2022-09-12T01:21:11;12.07;;;9.03;;
1204;SDS011;592;48.764;9.174;2022-09-12T01:23:52;11.83;;;8.03;;
1204;SDS011;592;48.764;9.174;2022-09-12T01:26:48;12.30;;;9.27;;
1204;SDS011;592;48.764;9.174;2022-09-12T01:32:25;13.37;;;10.00;;
1204;SDS011;592;48.764;9.174;2022-09-12T01:35:02;12.70;;;9.33;;
1204;SDS011;592;48.764;9.174;2022-09-12T01:37:37;12.73;;;9.97;;
1204;SDS011;592;48.764;9.174;2022-09-12T01:40:09;12.77;;;9.10;;
1204;SDS011;592;48.764;9.174;2022-09-12T01:42:48;13.67;;;9.47;;
1204;SDS011;592;48.764;9.174;2022-09-12T01:45:22;13.57;;;10.20;;
1204;SDS011;592;48.764;9.174;2022-09-12T01:47:55;16.93;;;10.47;;
1204;SDS011;592;48.764;9.174;2022-09-12T01:50:29;14.63;;;10.97;;
1204;SDS011;592;48.764;9.174;2022-09-12T01:52:59;15.63;;;8.83;;
1204;SDS011;592;48.764;9.174;2022-09-12T01:55:29;12.30;;;8.90;;
1204;SDS011;592;48.764;9.174;2022-09-12T01:57:59;13.53;;;10.00;;
1204;SDS011;592;48.764;9.174;2022-09-12T02:00:31;10.73;;;8.77;;
1204;SDS011;592;48.764;9.174;2022-09-12T02:03:00;13.23;;;8.43;;
1204;SDS011;592;48.764;9.174;2022-09-12T02:05:33;15.00;;;10.53;;
1204;SDS011;592;48.764;9.174;2022-09-12T02:08:03;16.50;;;10.90;;
1204;SDS011;592;48.764;9.174;2022-09-12T02:10:33;14.00;;;10.57;;
1204;SDS011;592;48.764;9.174;2022-09-12T02:13:07;16.87;;;10.47;;
1204;SDS011;592;48.764;9.174;2022-09-12T02:15:39;14.17;;;9.97;;
1204;SDS011;592;48.764;9.174;2022-09-12T02:18:12;13.80;;;10.40;;
1204;SDS011;592;48.764;9.174;2022-09-12T02:20:42;15.50;;;11.10;;
1204;SDS011;592;48.764;9.174;2022-09-12T02:23:11;17.47;;;11.23;;
1204;SDS011;592;48.764;9.174;2022-09-12T02:25:40;16.97;;;11.60;;
1204;SDS011;592;48.764;9.174;2022-09-12T02:28:12;16.70;;;11.83;;
1204;SDS011;592;48.764;9.174;2022-09-12T02:30:43;16.30;;;12.10;;
1204;SDS011;592;48.764;9.174;2022-09-12T02:33:18;18.80;;;11.13;;
1204;SDS011;592;48.764;9.174;2022-09-12T02:35:51;17.30;;;11.23;;
1204;SDS011;592;48.764;9.174;2022-09-12T02:38:23;15.03;;;10.90;;
1204;SDS011;592;48.764;9.174;2022-09-12T02:40:55;16.37;;;11.00;;
1204;SDS011;592;48.764;9.174;2022-09-12T02:43:21;16.33;;;10.90;;
1204;SDS011;592;48.764;9.174;2022-09-12T02:45:49;14.90;;;10.60;;
1204;SDS011;592;48.764;9.174;2022-09-12T02:48:17;14.37;;;10.57;;
1204;SDS011;592;48.764;9.174;2022-09-12T02:50:48;14.07;;;10.83;;
1204;SDS011;592;48.764;9.174;2022-09-12T02:53:15;17.70;;;12.63;;
1204;SDS011;592;48.764;9.174;2022-09-12T02:55:43;16.90;;;12.10;;
1204;SDS011;592;48.764;9.174;2022-09-12T02:58:11;15.60;;;10.83;;
1204;SDS011;592;48.764;9.174;2022-09-12T03:00:43;16.60;;;10.87;;
1204;SDS011;592;48.764;9.174;2022-09-12T03:03:23;16.03;;;12.17;;
1204;SDS011;592;48.764;9.174;2022-09-12T03:06:04;15.47;;;10.80;;
1204;SDS011;592;48.764;9.174;2022-09-12T03:08:46;17.90;;;11.90;;
1204;SDS011;592;48.764;9.174;2022-09-12T03:11:26;16.77;;;11.40;;
1204;SDS011;592;48.764;9.174;2022-09-12T03:14:11;15.07;;;11.17;;
1204;SDS011;592;48.764;9.174;2022-09-12T03:16:50;15.33;;;10.10;;
1204;SDS011;592;48.764;9.174;2022-09-12T03:19:24;14.43;;;9.70;;
1204;SDS011;592;48.764;9.174;2022-09-12T03:22:01;14.53;;;10.43;;
1204;SDS011;592;48.764;9.174;2022-09-12T03:24:33;16.43;;;11.07;;
1204;SDS011;592;48.764;9.174;2022-09-12T03:27:04;16.20;;;10.73;;
1204;SDS011;592;48.764;9.174;2022-09-12T03:29:35;13.60;;;10.20;;
1204;SDS011;592;48.764;9.174;2022-09-12T03:32:03;15.87;;;11.27;;
1204;SDS011;592;48.764;9.174;2022-09-12T03:34:32;14.83;;;10.43;;
1204;SDS011;592;48.764;9.174;2022-09-12T03:36:59;15.23;;;11.20;;
1204;SDS011;592;48.764;9.174;2022-09-12T03:39:26;15.40;;;11.60;;
1204;SDS011;592;48.764;9.174;2022-09-12T03:41:52;16.50;;;12.63;;
1204;SDS011;592;48.764;9.174;2022-09-12T03:44:19;15.80;;;12.30;;
1204;SDS011;592;48.764;9.174;2022-09-12T03:46:46;19.33;;;12.70;;
1204;SDS011;592;48.764;9.174;2022-09-12T03:49:13;16.60;;;12.50;;
1204;SDS011;592;48.764;9.174;2022-09-12T03:51:41;18.57;;;12.70;;
1204;SDS011;592;48.764;9.174;2022-09-12T03:54:08;16.23;;;11.40;;
1204;SDS011;592;48.764;9.174;2022-09-12T03:56:36;17.47;;;11.17;;
1204;SDS011;592;48.764;9.174;2022-09-12T03:59:04;18.03;;;11.60;;
1204;SDS011;592;48.764;9.174;2022-09-12T04:01:31;15.00;;;10.87;;
1204;SDS011;592;48.764;9.174;2022-09-12T04:03:58;16.17;;;11.47;;
1204;SDS011;592;48.764;9.174;2022-09-12T04:06:25;17.83;;;12.63;;
1204;SDS011;592;48.764;9.174;2022-09-12T04:08:53;15.13;;;11.40;;
1204;SDS011;592;48.764;9.174;2022-09-12T04:11:21;18.20;;;10.97;;
1204;SDS011;592;48.764;9.174;2022-09-12T04:13:48;14.60;;;10.90;;
1204;SDS011;592;48.764;9.174;2022-09-12T04:16:15;13.10;;;9.30;;
1204;SDS011;592;48.764;9.174;2022-09-12T04:18:43;15.20;;;10.77;;
1204;SDS011;592;48.764;9.174;2022-09-12T04:21:10;13.80;;;10.27;;
1204;SDS011;592;48.764;9.174;2022-09-12T04:23:38;14.70;;;10.37;;
1204;SDS011;592;48.764;9.174;2022-09-12T04:26:06;14.50;;;10.20;;
1204;SDS011;592;48.764;9.174;2022-09-12T04:28:33;18.83;;;11.80;;
1204;SDS011;592;48.764;9.174;2022-09-12T04:31:03;14.03;;;10.80;;
1204;SDS011;592;48.764;9.174;2022-09-12T04:33:31;14.80;;;11.00;;
1204;SDS011;592;48.764;9.174;2022-09-12T04:36:01;16.47;;;11.70;;
1204;SDS011;592;48.764;9.174;2022-09-12T04:38:30;15.73;;;11.37;;
1204;SDS011;592;48.764;9.174;2022-09-12T04:40:56;17.10;;;11.63;;
1204;SDS011;592;48.764;9.174;2022-09-12T04:43:24;15.67;;;11.60;;
1204;SDS011;592;48.764;9.174;2022-09-12T04:45:51;14.27;;;10.40;;
1204;SDS011;592;48.764;9.174;2022-09-12T04:48:18;14.17;;;9.97;;
1204;SDS011;592;48.764;9.174;2022-09-12T04:50:44;19.27;;;11.07;;
1204;SDS011;592;48.764;9.174;2022-09-12T04:53:11;16.47;;;11.87;;
1204;SDS011;592;48.764;9.174;2022-09-12T04:55:38;16.93;;;11.83;;
1204;SDS011;592;48.764;9.174;2022-09-12T04:58:06;18.67;;;11.90;;
1204;SDS011;592;48.764;9.174;2022-09-12T05:00:34;17.30;;;11.90;;
1204;SDS011;592;48.764;9.174;2022-09-12T05:03:00;15.90;;;11.30;;
1204;SDS011;592;48.764;9.174;2022-09-12T05:05:27;16.57;;;11.80;;
1204;SDS011;592;48.764;9.174;2022-09-12T05:07:54;14.00;;;9.80;;
1204;SDS011;592;48.764;9.174;2022-09-12T05:10:20;15.10;;;10.20;;
1204;SDS011;592;48.764;9.174;2022-09-12T05:12:47;16.30;;;10.57;;
1204;SDS011;592;48.764;9.174;2022-09-12T05:15:14;14.97;;;10.10;;
1204;SDS011;592;48.764;9.174;2022-09-12T05:17:43;17.20;;;10.97;;
1204;SDS011;592;48.764;9.174;2022-09-12T05:20:10;18.63;;;11.80;;
1204;SDS011;592;48.764;9.174;2022-09-12T05:22:37;15.33;;;10.77;;
1204;SDS011;592;48.764;9.174;2022-09-12T05:25:04;15.27;;;11.53;;
1204;SDS011;592;48.764;9.174;2022-09-12T05:27:32;16.20;;;11.77;;
1204;SDS011;592;48.764;9.174;2022-09-12T05:29:58;14.00;;;10.13;;
1204;SDS011;592;48.764;9.174;2022-09-12T05:32:25;18.10;;;11.30;;
1204;SDS011;592;48.764;9.174;2022-09-12T05:34:58;15.73;;;11.33;;
1204;SDS011;592;48.764;9.174;2022-09-12T05:37:24;16.83;;;12.00;;
1204;SDS011;592;48.764;9.174;2022-09-12T05:39:51;18.27;;;11.60;;
1204;SDS011;592;48.764;9.174;2022-09-12T05:42:18;17.10;;;11.40;;
1204;SDS011;592;48.764;9.174;2022-09-12T05:44:45;14.10;;;10.50;;
1204;SDS011;592;48.764;9.174;2022-09-12T05:47:11;17.83;;;11.30;;
1204;SDS011;592;48.764;9.174;2022-09-12T05:49:40;26.93;;;11.30;;
1204;SDS011;592;48.764;9.174;2022-09-12T05:52:10;16.30;;;10.23;;
1204;SDS011;592;48.764;9.174;2022-09-12T05:54:37;15.23;;;10.30;;
1204;SDS011;592;48.764;9.174;2022-09-12T05:57:05;17.13;;;10.37;;
1204;SDS011;592;48.764;9.174;2022-09-12T05:59:32;16.23;;;11.00;;
1204;SDS011;592;48.764;9.174;2022-09-12T06:01:58;25.33;;;11.80;;
1204;SDS011;592;48.764;9.174;2022-09-12T06:04:25;17.07;;;12.03;;
1204;SDS011;592;48.764;9.174;2022-09-12T06:06:52;14.17;;;10.43;;
1204;SDS011;592;48.764;9.174;2022-09-12T06:09:20;15.00;;;10.40;;
1204;SDS011;592;48.764;9.174;2022-09-12T06:11:49;15.87;;;10.90;;
1204;SDS011;592;48.764;9.174;2022-09-12T06:14:16;15.03;;;10.90;;
1204;SDS011;592;48.764;9.174;2022-09-12T06:16:43;15.80;;;12.00;;
1204;SDS011;592;48.764;9.174;2022-09-12T06:19:12;17.47;;;12.07;;
1204;SDS011;592;48.764;9.174;2022-09-12T06:21:40;15.73;;;11.27;;
1204;SDS011;592;48.764;9.174;2022-09-12T06:24:07;15.97;;;10.53;;
1204;SDS011;592;48.764;9.174;2022-09-12T06:26:35;14.57;;;10.60;;
1204;SDS011;592;48.764;9.174;2022-09-12T06:29:02;14.33;;;11.17;;
1204;SDS011;592;48.764;9.174;2022-09-12T06:31:30;18.93;;;10.77;;
1204;SDS011;592;48.764;9.174;2022-09-12T06:33:59;15.83;;;11.20;;
1204;SDS011;592;48.764;9.174;2022-09-12T06:36:28;15.40;;;10.10;;
1204;SDS011;592;48.764;9.174;2022-09-12T06:38:56;15.23;;;10.50;;
1204;SDS011;592;48.764;9.174;2022-09-12T06:41:25;16.97;;;11.60;;
1204;SDS011;592;48.764;9.174;2022-09-12T06:43:54;15.87;;;11.53;;
1204;SDS011;592;48.764;9.174;2022-09-12T06:46:21;15.83;;;11.70;;
1204;SDS011;592;48.764;9.174;2022-09-12T06:48:48;15.90;;;11.67;;
1204;SDS011;592;48.764;9.174;2022-09-12T06:54:06;18.90;;;12.47;;
1204;SDS011;592;48.764;9.174;2022-09-12T06:56:32;19.17;;;12.20;;
1204;SDS011;592;48.764;9.174;2022-09-12T06:59:06;19.70;;;13.97;;
1204;SDS011;592;48.764;9.174;2022-09-12T07:01:34;18.70;;;13.60;;
1204;SDS011;592;48.764;9.174;2022-09-12T07:04:02;18.57;;;12.40;;
1204;SDS011;592;48.764;9.174;2022-09-12T07:06:30;21.60;;;13.27;;
1204;SDS011;592;48.764;9.174;2022-09-12T07:09:05;21.03;;;12.27;;
1204;SDS011;592;48.764;9.174;2022-09-12T07:11:34;33.67;;;13.47;;
1204;SDS011;592;48.764;9.174;2022-09-12T07:14:03;24.57;;;13.33;;
1204;SDS011;592;48.764;9.174;2022-09-12T07:16:33;16.97;;;11.80;;
1204;SDS011;592;48.764;9.174;2022-09-12T07:19:01;16.10;;;12.20;;
1204;SDS011;592;48.764;9.174;2022-09-12T07:21:29;15.70;;;11.93;;
1204;SDS011;592;48.764;9.174;2022-09-12T07:23:56;19.67;;;12.23;;
1204;SDS011;592;48.764;9.174;2022-09-12T07:26:24;19.70;;;11.87;;
1204;SDS011;592;48.764;9.174;2022-09-12T07:28:52;16.20;;;11.60;;
1204;SDS011;592;48.764;9.174;2022-09-12T07:31:21;15.97;;;11.93;;
1204;SDS011;592;48.764;9.174;2022-09-12T07:33:49;14.70;;;10.93;;
1204;SDS011;592;48.764;9.174;2022-09-12T07:36:17;14.80;;;10.60;;
1204;SDS011;592;48.764;9.174;2022-09-12T07:38:45;16.70;;;11.73;;
1204;SDS011;592;48.764;9.174;2022-09-12T07:41:12;14.37;;;10.17;;
1204;SDS011;592;48.764;9.174;2022-09-12T07:43:40;17.70;;;11.60;;
1204;SDS011;592;48.764;9.174;2022-09-12T07:46:07;15.70;;;10.73;;
1204;SDS011;592;48.764;9.174;2022-09-12T07:48:35;15.90;;;11.03;;
1204;SDS011;592;48.764;9.174;2022-09-12T07:51:03;15.23;;;11.50;;
1204;SDS011;592;48.764;9.174;2022-09-12T07:53:31;17.33;;;10.77;;
1204;SDS011;592;48.764;9.174;2022-09-12T07:56:01;14.47;;;9.83;;
1204;SDS011;592;48.764;9.174;2022-09-12T07:58:29;13.07;;;9.13;;
1204;SDS011;592;48.764;9.174;2022-09-12T08:01:00;12.70;;;8.10;;
1204;SDS011;592;48.764;9.174;2022-09-12T08:03:28;16.03;;;9.10;;
1204;SDS011;592;48.764;9.174;2022-09-12T08:05:59;12.80;;;8.80;;
1204;SDS011;592;48.764;9.174;2022-09-12T08:08:28;14.87;;;8.13;;
1204;SDS011;592;48.764;9.174;2022-09-12T08:10:55;11.90;;;9.70;;
1204;SDS011;592;48.764;9.174;2022-09-12T08:13:23;13.80;;;8.70;;
1204;SDS011;592;48.764;9.174;2022-09-12T08:15:50;12.87;;;9.20;;
1204;SDS011;592;48.764;9.174;2022-09-12T08:18:17;17.40;;;10.10;;
1204;SDS011;592;48.764;9.174;2022-09-12T08:20:44;14.70;;;9.57;;
1204;SDS011;592;48.764;9.174;2022-09-12T08:23:11;14.70;;;10.50;;
1204;SDS011;592;48.764;9.174;2022-09-12T08:25:38;15.70;;;10.23;;
1204;SDS011;592;48.764;9.174;2022-09-12T08:28:05;17.07;;;9.90;;
1204;SDS011;592;48.764;9.174;2022-09-12T08:30:31;14.63;;;10.20;;
1204;SDS011;592;48.764;9.174;2022-09-12T08:32:58;11.80;;;9.20;;
1204;SDS011;592;48.764;9.174;2022-09-12T08:35:25;13.80;;;8.97;;
1204;SDS011;592;48.764;9.174;2022-09-12T08:37:51;12.97;;;8.80;;
1204;SDS011;592;48.764;9.174;2022-09-12T08:40:19;18.20;;;9.23;;
1204;SDS011;592;48.764;9.174;2022-09-12T08:42:50;11.83;;;8.83;;
1204;SDS011;592;48.764;9.174;2022-09-12T08:45:25;17.57;;;9.77;;
1204;SDS011;592;48.764;9.174;2022-09-12T08:47:58;11.57;;;8.63;;
1204;SDS011;592;48.764;9.174;2022-09-12T08:50:29;13.00;;;8.10;;
1204;SDS011;592;48.764;9.174;2022-09-12T08:52:57;14.03;;;8.53;;
1204;SDS011;592;48.764;9.174;2022-09-12T08:55:32;16.00;;;9.20;;
1204;SDS011;592;48.764;9.174;2022-09-12T08:58:01;11.67;;;8.80;;
1204;SDS011;592;48.764;9.174;2022-09-12T09:08:01;10.00;;;7.33;;
1204;SDS011;592;48.764;9.174;2022-09-12T09:10:48;9.60;;;6.47;;
1204;SDS011;592;48.764;9.174;2022-09-12T09:13:23;10.57;;;6.20;;
1204;SDS011;592;48.764;9.174;2022-09-12T09:16:16;9.87;;;6.13;;
1204;SDS011;592;48.764;9.174;2022-09-12T09:18:47;9.07;;;6.50;;
1204;SDS011;592;48.764;9.174;2022-09-12T09:21:19;7.80;;;5.53;;
1204;SDS011;592;48.764;9.174;2022-09-12T09:23:49;7.40;;;5.63;;
1204;SDS011;592;48.764;9.174;2022-09-12T09:26:26;7.93;;;5.97;;
1204;SDS011;592;48.764;9.174;2022-09-12T09:29:00;11.20;;;5.50;;
1204;SDS011;592;48.764;9.174;2022-09-12T09:31:32;6.57;;;5.40;;
1204;SDS011;592;48.764;9.174;2022-09-12T09:34:04;5.17;;;3.60;;
1204;SDS011;592;48.764;9.174;2022-09-12T09:36:37;7.60;;;4.20;;
1204;SDS011;592;48.764;9.174;2022-09-12T09:39:14;7.13;;;4.50;;
1204;SDS011;592;48.764;9.174;2022-09-12T09:41:58;5.07;;;3.40;;
1204;SDS011;592;48.764;9.174;2022-09-12T09:44:34;6.27;;;3.90;;
1204;SDS011;592;48.764;9.174;2022-09-12T09:47:02;6.37;;;4.40;;
1204;SDS011;592;48.764;9.174;2022-09-12T09:49:30;5.00;;;3.57;;
1204;SDS011;592;48.764;9.174;2022-09-12T09:51:58;8.37;;;4.37;;
1204;SDS011;592;48.764;9.174;2022-09-12T09:54:27;5.43;;;3.80;;
1204;SDS011;592;48.764;9.174;2022-09-12T09:57:00;13.07;;;3.67;;
1204;SDS011;592;48.764;9.174;2022-09-12T09:59:29;6.33;;;3.90;;
1204;SDS011;592;48.764;9.174;2022-09-12T10:01:58;7.90;;;3.63;;
1204;SDS011;592;48.764;9.174;2022-09-12T10:04:28;5.60;;;3.60;;
1204;SDS011;592;48.764;9.174;2022-09-12T10:06:56;6.57;;;4.13;;
1204;SDS011;592;48.764;9.174;2022-09-12T10:09:25;7.63;;;3.90;;
1204;SDS011;592;48.764;9.174;2022-09-12T10:11:53;5.90;;;3.60;;
1204;SDS011;592;48.764;9.174;2022-09-12T10:14:27;4.50;;;3.07;;
1204;SDS011;592;48.764;9.174;2022-09-12T10:16:56;5.93;;;3.63;;
1204;SDS011;592;48.764;9.174;2022-09-12T10:19:31;4.67;;;3.37;;
1204;SDS011;592;48.764;9.174;2022-09-12T10:21:59;5.37;;;3.50;;
1204;SDS011;592;48.764;9.174;2022-09-12T10:24:29;5.53;;;4.03;;
1204;SDS011;592;48.764;9.174;2022-09-12T10:27:05;6.07;;;3.60;;
1204;SDS011;592;48.764;9.174;2022-09-12T10:29:38;5.83;;;3.63;;
1204;SDS011;592;48.764;9.174;2022-09-12T10:32:10;5.23;;;3.47;;
1204;SDS011;592;48.764;9.174;2022-09-12T10:34:40;4.73;;;3.00;;
1204;SDS011;592;48.764;9.174;2022-09-12T10:37:09;5.50;;;3.27;;
1204;SDS011;592;48.764;9.174;2022-09-12T10:39:48;4.73;;;3.23;;
1204;SDS011;592;48.764;9.174;2022-09-12T10:42:18;5.20;;;3.20;;
1204;SDS011;592;48.764;9.174;2022-09-12T10:45:18;4.97;;;3.03;;
1204;SDS011;592;48.764;9.174;2022-09-12T10:47:47;4.27;;;2.70;;
1204;SDS011;592;48.764;9.174;2022-09-12T10:50:18;5.53;;;3.13;;
1204;SDS011;592;48.764;9.174;2022-09-12T10:52:50;5.13;;;2.90;;
1204;SDS011;592;48.764;9.174;2022-09-12T10:55:16;14.20;;;3.40;;
1204;SDS011;592;48.764;9.174;2022-09-12T10:57:53;5.13;;;2.70;;
1204;SDS011;592;48.764;9.174;2022-09-12T11:00:34;7.90;;;3.07;;
1204;SDS011;592;48.764;9.174;2022-09-12T11:03:08;4.23;;;2.60;;
1204;SDS011;592;48.764;9.174;2022-09-12T11:05:46;5.23;;;3.07;;
1204;SDS011;592;48.764;9.174;2022-09-12T11:11:17;4.30;;;2.90;;
1204;SDS011;592;48.764;9.174;2022-09-12T11:13:58;4.20;;;2.40;;
1204;SDS011;592;48.764;9.174;2022-09-12T11:16:39;5.13;;;2.53;;
1204;SDS011;592;48.764;9.174;2022-09-12T11:19:30;4.90;;;2.90;;
1204;SDS011;592;48.764;9.174;2022-09-12T11:22:10;4.90;;;2.57;;
1204;SDS011;592;48.764;9.174;2022-09-12T11:24:48;5.07;;;3.03;;
1204;SDS011;592;48.764;9.174;2022-09-12T11:27:41;4.50;;;2.60;;
1204;SDS011;592;48.764;9.174;2022-09-12T11:30:20;6.70;;;2.67;;
1204;SDS011;592;48.764;9.174;2022-09-12T11:32:57;4.50;;;2.20;;
1204;SDS011;592;48.764;9.174;2022-09-12T11:35:42;5.00;;;2.27;;
1204;SDS011;592;48.764;9.174;2022-09-12T11:38:17;5.10;;;2.40;;
1204;SDS011;592;48.764;9.174;2022-09-12T11:41:08;4.80;;;2.87;;
1204;SDS011;592;48.764;9.174;2022-09-12T11:43:42;4.53;;;2.63;;
1204;SDS011;592;48.764;9.174;2022-09-12T11:46:15;4.40;;;2.83;;
1204;SDS011;592;48.764;9.174;2022-09-12T11:48:49;4.43;;;2.50;;
1204;SDS011;592;48.764;9.174;2022-09-12T11:51:22;4.00;;;1.90;;
1204;SDS011;592;48.764;9.174;2022-09-12T11:53:57;3.77;;;2.17;;
1204;SDS011;592;48.764;9.174;2022-09-12T11:56:28;6.03;;;2.30;;
1204;SDS011;592;48.764;9.174;2022-09-12T11:58:57;5.47;;;1.97;;
1204;SDS011;592;48.764;9.174;2022-09-12T12:01:30;3.57;;;2.00;;
1204;SDS011;592;48.764;9.174;2022-09-12T12:04:02;4.57;;;2.50;;
1204;SDS011;592;48.764;9.174;2022-09-12T12:06:39;5.00;;;2.20;;
1204;SDS011;592;48.764;9.174;2022-09-12T12:09:13;4.37;;;2.40;;
1204;SDS011;592;48.764;9.174;2022-09-12T12:11:42;5.20;;;2.30;;
1204;SDS011;592;48.764;9.174;2022-09-12T12:14:14;3.30;;;1.90;;
1204;SDS011;592;48.764;9.174;2022-09-12T12:16:44;4.67;;;2.50;;
1204;SDS011;592;48.764;9.174;2022-09-12T12:19:23;3.77;;;2.33;;
1204;SDS011;592;48.764;9.174;2022-09-12T12:22:06;4.00;;;1.90;;
1204;SDS011;592;48.764;9.174;2022-09-12T12:24:52;3.30;;;1.80;;
1204;SDS011;592;48.764;9.174;2022-09-12T12:27:22;4.47;;;2.43;;
1204;SDS011;592;48.764;9.174;2022-09-12T12:30:22;4.93;;;2.10;;
1204;SDS011;592;48.764;9.174;2022-09-12T12:36:31;4.20;;;2.30;;
1204;SDS011;592;48.764;9.174;2022-09-12T12:48:23;5.73;;;2.50;;
1204;SDS011;592;48.764;9.174;2022-09-12T12:50:50;4.20;;;2.50;;
1204;SDS011;592;48.764;9.174;2022-09-12T12:53:20;4.17;;;2.30;;
1204;SDS011;592;48.764;9.174;2022-09-12T12:55:49;4.43;;;2.57;;
1204;SDS011;592;48.764;9.174;2022-09-12T12:58:22;4.03;;;2.30;;
1204;SDS011;592;48.764;9.174;2022-09-12T13:01:02;4.10;;;2.30;;
1204;SDS011;592;48.764;9.174;2022-09-12T13:03:36;4.90;;;2.13;;
1204;SDS011;592;48.764;9.174;2022-09-12T13:06:06;5.03;;;2.70;;
1204;SDS011;592;48.764;9.174;2022-09-12T13:08:54;3.90;;;2.13;;
1204;SDS011;592;48.764;9.174;2022-09-12T13:11:28;4.10;;;2.20;;
1204;SDS011;592;48.764;9.174;2022-09-12T13:13:59;4.27;;;2.70;;
1204;SDS011;592;48.764;9.174;2022-09-12T13:16:33;3.67;;;2.07;;
1204;SDS011;592;48.764;9.174;2022-09-12T13:19:02;4.03;;;2.10;;
1204;SDS011;592;48.764;9.174;2022-09-12T13:21:31;3.47;;;2.00;;
1204;SDS011;592;48.764;9.174;2022-09-12T13:24:00;3.87;;;1.83;;
1204;SDS011;592;48.764;9.174;2022-09-12T13:26:31;4.50;;;2.40;;
1204;SDS011;592;48.764;9.174;2022-09-12T13:29:09;4.37;;;1.93;;
1204;SDS011;592;48.764;9.174;2022-09-12T13:31:39;3.77;;;1.90;;
1204;SDS011;592;48.764;9.174;2022-09-12T13:34:08;3.53;;;1.77;;
1204;SDS011;592;48.764;9.174;2022-09-12T13:39:46;3.70;;;1.90;;
1204;SDS011;592;48.764;9.174;2022-09-12T13:42:30;3.77;;;2.20;;
1204;SDS011;592;48.764;9.174;2022-09-12T13:45:09;5.23;;;2.20;;
1204;SDS011;592;48.764;9.174;2022-09-12T13:47:40;3.87;;;1.90;;
1204;SDS011;592;48.764;9.174;2022-09-12T13:50:13;5.90;;;2.20;;
1204;SDS011;592;48.764;9.174;2022-09-12T13:52:44;4.57;;;1.83;;
1204;SDS011;592;48.764;9.174;2022-09-12T13:55:22;4.80;;;2.07;;
1204;SDS011;592;48.764;9.174;2022-09-12T13:57:58;3.40;;;1.70;;
1204;SDS011;592;48.764;9.174;2022-09-12T14:00:26;7.00;;;1.73;;
1204;SDS011;592;48.764;9.174;2022-09-12T14:02:56;3.87;;;1.60;;
1204;SDS011;592;48.764;9.174;2022-09-12T14:05:37;4.00;;;2.00;;
1204;SDS011;592;48.764;9.174;2022-09-12T14:08:08;3.70;;;1.70;;
1204;SDS011;592;48.764;9.174;2022-09-12T14:10:39;3.57;;;1.80;;
1204;SDS011;592;48.764;9.174;2022-09-12T14:13:08;5.13;;;1.87;;
1204;SDS011;592;48.764;9.174;2022-09-12T14:15:37;3.90;;;2.13;;
1204;SDS011;592;48.764;9.174;2022-09-12T14:18:18;7.07;;;1.90;;
1204;SDS011;592;48.764;9.174;2022-09-12T14:20:48;4.53;;;1.70;;
1204;SDS011;592;48.764;9.174;2022-09-12T14:23:17;3.60;;;1.60;;
1204;SDS011;592;48.764;9.174;2022-09-12T14:25:52;4.10;;;1.87;;
1204;SDS011;592;48.764;9.174;2022-09-12T14:28:20;3.70;;;1.70;;
1204;SDS011;592;48.764;9.174;2022-09-12T14:31:01;3.80;;;1.73;;
1204;SDS011;592;48.764;9.174;2022-09-12T14:33:31;3.57;;;1.70;;
1204;SDS011;592;48.764;9.174;2022-09-12T14:36:06;5.80;;;1.70;;
1204;SDS011;592;48.764;9.174;2022-09-12T14:38:36;3.50;;;1.70;;
1204;SDS011;592;48.764;9.174;2022-09-12T14:41:09;3.30;;;1.60;;
1204;SDS011;592;48.764;9.174;2022-09-12T14:43:38;3.80;;;1.80;;
1204;SDS011;592;48.764;9.174;2022-09-12T14:46:13;3.13;;;1.63;;
1204;SDS011;592;48.764;9.174;2022-09-12T14:48:45;3.50;;;1.70;;
1204;SDS011;592;48.764;9.174;2022-09-12T14:51:16;3.40;;;1.80;;
1204;SDS011;592;48.764;9.174;2022-09-12T14:53:46;3.80;;;1.80;;
1204;SDS011;592;48.764;9.174;2022-09-12T14:56:15;5.30;;;1.80;;
1204;SDS011;592;48.764;9.174;2022-09-12T14:58:45;4.47;;;1.90;;
1204;SDS011;592;48.764;9.174;2022-09-12T15:01:22;3.37;;;1.70;;
1204;SDS011;592;48.764;9.174;2022-09-12T15:03:51;3.43;;;1.60;;
1204;SDS011;592;48.764;9.174;2022-09-12T15:06:21;4.47;;;1.90;;
1204;SDS011;592;48.764;9.174;2022-09-12T15:08:51;5.00;;;1.90;;
1204;SDS011;592;48.764;9.174;2022-09-12T15:11:20;3.30;;;1.70;;
1204;SDS011;592;48.764;9.174;2022-09-12T15:13:46;4.60;;;1.80;;
1204;SDS011;592;48.764;9.174;2022-09-12T15:16:13;3.57;;;1.87;;
1204;SDS011;592;48.764;9.174;2022-09-12T15:18:40;3.30;;;1.50;;
1204;SDS011;592;48.764;9.174;2022-09-12T15:21:10;3.50;;;1.87;;
1204;SDS011;592;48.764;9.174;2022-09-12T15:23:39;3.47;;;1.80;;
1204;SDS011;592;48.764;9.174;2022-09-12T15:26:10;4.23;;;1.90;;
1204;SDS011;592;48.764;9.174;2022-09-12T15:28:39;4.87;;;2.40;;
1204;SDS011;592;48.764;9.174;2022-09-12T15:31:09;3.90;;;1.80;;
1204;SDS011;592;48.764;9.174;2022-09-12T15:33:38;3.70;;;1.90;;
1204;SDS011;592;48.764;9.174;2022-09-12T15:36:09;3.33;;;1.93;;
1204;SDS011;592;48.764;9.174;2022-09-12T15:38:40;3.87;;;2.00;;
1204;SDS011;592;48.764;9.174;2022-09-12T15:41:09;3.87;;;1.80;;
1204;SDS011;592;48.764;9.174;2022-09-12T15:43:36;4.43;;;2.27;;
1204;SDS011;592;48.764;9.174;2022-09-12T15:46:05;3.70;;;2.10;;
1204;SDS011;592;48.764;9.174;2022-09-12T15:48:31;3.70;;;2.03;;
1204;SDS011;592;48.764;9.174;2022-09-12T15:50:58;3.20;;;1.80;;
1204;SDS011;592;48.764;9.174;2022-09-12T15:53:25;4.93;;;2.20;;
1204;SDS011;592;48.764;9.174;2022-09-12T15:55:52;3.83;;;2.20;;
1204;SDS011;592;48.764;9.174;2022-09-12T15:58:19;3.80;;;2.30;;
1204;SDS011;592;48.764;9.174;2022-09-12T16:00:46;4.33;;;2.10;;
1204;SDS011;592;48.764;9.174;2022-09-12T16:03:16;7.10;;;2.30;;
1204;SDS011;592;48.764;9.174;2022-09-12T16:05:46;3.90;;;2.17;;
1204;SDS011;592;48.764;9.174;2022-09-12T16:08:13;4.17;;;2.40;;
1204;SDS011;592;48.764;9.174;2022-09-12T16:10:40;4.93;;;2.37;;